createdAt,value
2022-12-26T00:00:03.936Z,8.66
2022-12-26T00:00:34.498Z,8.66
2022-12-26T00:01:06.630Z,8.66
2022-12-26T00:01:34.408Z,8.77
2022-12-26T00:01:54.157Z,8.59
2022-12-26T00:02:26.213Z,8.77
2022-12-26T00:02:58.240Z,8.69
2022-12-26T00:03:30.313Z,8.69
2022-12-26T00:04:03.001Z,8.69
2022-12-26T00:04:49.525Z,8.69
2022-12-26T00:05:07.008Z,8.74
2022-12-26T00:05:34.360Z,8.74
2022-12-26T00:05:54.357Z,8.74
2022-12-26T00:06:26.118Z,8.93
2022-12-26T00:06:58.122Z,8.88
2022-12-26T00:07:30.146Z,8.88
2022-12-26T00:08:02.156Z,8.88
2022-12-26T00:08:34.414Z,8.88
2022-12-26T00:09:06.582Z,8.88
2022-12-26T00:09:35.421Z,8.88
2022-12-26T00:09:54.110Z,8.77
2022-12-26T00:10:27.242Z,8.77
2022-12-26T00:10:43.480Z,8.77
2022-12-26T00:11:14.131Z,8.77
2022-12-26T00:11:36.344Z,8.77
2022-12-26T00:12:02.193Z,8.66
2022-12-26T00:12:34.120Z,8.66
2022-12-26T00:13:38.752Z,8.66
2022-12-26T00:13:39.426Z,8.66
2022-12-26T00:13:54.131Z,8.66
2022-12-26T00:14:26.120Z,8.77
2022-12-26T00:14:43.266Z,8.59
2022-12-26T00:15:14.731Z,8.77
2022-12-26T00:15:36.373Z,8.77
2022-12-26T00:16:03.323Z,8.77
2022-12-26T00:16:34.566Z,8.77
2022-12-26T00:17:06.612Z,8.59
2022-12-26T00:17:35.376Z,8.59
2022-12-26T00:17:54.188Z,8.59
2022-12-26T00:18:26.130Z,8.88
2022-12-26T00:18:43.296Z,8.88
2022-12-26T00:19:14.087Z,8.88
2022-12-26T00:19:36.591Z,8.88
2022-12-26T00:20:03.629Z,8.88
2022-12-26T00:20:34.201Z,8.77
2022-12-26T00:21:06.625Z,8.77
2022-12-26T00:21:35.361Z,8.77
2022-12-26T00:21:54.128Z,8.59
2022-12-26T00:22:26.124Z,8.77
2022-12-26T00:22:43.255Z,8.77
2022-12-26T00:23:14.987Z,8.77
2022-12-26T00:23:36.351Z,8.77
2022-12-26T00:24:02.162Z,8.77
2022-12-26T00:24:34.184Z,8.77
2022-12-26T00:25:06.964Z,8.77
2022-12-26T00:25:35.358Z,8.77
2022-12-26T00:25:54.368Z,8.77
2022-12-26T00:26:26.905Z,8.77
2022-12-26T00:26:43.448Z,8.77
2022-12-26T00:27:14.080Z,8.77
2022-12-26T00:27:36.355Z,8.77
2022-12-26T00:28:02.177Z,8.59
2022-12-26T00:28:34.085Z,8.59
2022-12-26T00:29:06.612Z,8.77
2022-12-26T00:29:37.449Z,8.77
2022-12-26T00:29:53.987Z,8.77
2022-12-26T00:30:26.799Z,8.77
2022-12-26T00:30:43.298Z,8.77
2022-12-26T00:31:14.180Z,8.77
2022-12-26T00:31:36.383Z,8.77
2022-12-26T00:32:02.253Z,8.59
2022-12-26T00:32:34.063Z,8.59
2022-12-26T00:33:06.648Z,8.69
2022-12-26T00:33:35.374Z,8.69
2022-12-26T00:33:54.169Z,8.69
2022-12-26T00:34:26.123Z,8.69
2022-12-26T00:34:43.285Z,8.69
2022-12-26T00:35:14.432Z,8.69
2022-12-26T00:35:36.351Z,8.69
2022-12-26T00:36:03.136Z,8.69
2022-12-26T00:36:34.094Z,8.69
2022-12-26T00:37:06.599Z,8.69
2022-12-26T00:37:43.830Z,8.69
2022-12-26T00:38:10.108Z,8.69
2022-12-26T00:38:35.456Z,8.69
2022-12-26T00:38:58.128Z,8.69
2022-12-26T00:39:30.138Z,8.69
2022-12-26T00:40:03.453Z,8.69
2022-12-26T00:40:34.383Z,8.69
2022-12-26T00:41:06.610Z,8.69
2022-12-26T00:41:38.085Z,8.69
2022-12-26T00:42:10.104Z,8.69
2022-12-26T00:42:35.334Z,8.69
2022-12-26T00:42:58.159Z,8.69
2022-12-26T00:43:30.192Z,8.69
2022-12-26T00:44:02.168Z,8.69
2022-12-26T00:44:34.131Z,8.69
2022-12-26T00:45:07.250Z,8.69
2022-12-26T00:45:37.287Z,8.69
2022-12-26T00:45:54.511Z,8.69
2022-12-26T00:46:26.177Z,8.69
2022-12-26T00:46:43.338Z,8.69
2022-12-26T00:47:14.253Z,8.69
2022-12-26T00:47:36.342Z,8.69
2022-12-26T00:48:02.140Z,8.69
2022-12-26T00:48:34.092Z,8.59
2022-12-26T00:49:06.593Z,8.59
2022-12-26T00:50:13.155Z,8.59
2022-12-26T00:50:13.406Z,8.59
2022-12-26T00:50:31.170Z,8.59
2022-12-26T00:50:43.309Z,8.77
2022-12-26T00:51:14.575Z,8.77
2022-12-26T00:51:36.389Z,8.77
2022-12-26T00:52:03.103Z,8.66
2022-12-26T00:52:34.121Z,8.66
2022-12-26T00:53:06.614Z,8.66
2022-12-26T00:53:38.112Z,8.66
2022-12-26T00:54:10.103Z,8.66
2022-12-26T00:54:36.098Z,8.66
2022-12-26T00:54:58.093Z,8.55
2022-12-26T00:55:30.564Z,8.55
2022-12-26T00:56:02.126Z,8.55
2022-12-26T00:56:34.473Z,8.55
2022-12-26T00:57:06.568Z,8.55
2022-12-26T00:57:36.759Z,8.55
2022-12-26T00:57:54.118Z,8.55
2022-12-26T00:58:26.962Z,8.55
2022-12-26T00:58:58.157Z,8.55
2022-12-26T00:59:30.153Z,8.55
2022-12-26T01:00:03.704Z,8.55
2022-12-26T01:00:34.134Z,8.66
2022-12-26T01:01:06.677Z,8.66
2022-12-26T01:01:36.822Z,8.66
2022-12-26T01:01:54.282Z,8.66
2022-12-26T01:02:26.226Z,8.48
2022-12-26T01:02:43.390Z,8.48
2022-12-26T01:03:14.329Z,8.66
2022-12-26T01:03:36.445Z,8.48
2022-12-26T01:04:02.134Z,8.48
2022-12-26T01:04:34.166Z,8.48
2022-12-26T01:05:07.045Z,8.59
2022-12-26T01:05:35.318Z,8.59
2022-12-26T01:05:54.340Z,8.59
2022-12-26T01:06:26.161Z,8.59
2022-12-26T01:06:43.289Z,8.59
2022-12-26T01:07:14.073Z,8.59
2022-12-26T01:07:36.326Z,8.59
2022-12-26T01:08:19.816Z,8.69
2022-12-26T01:08:34.121Z,8.69
2022-12-26T01:09:06.635Z,8.59
2022-12-26T01:09:38.075Z,8.59
2022-12-26T01:10:10.401Z,8.59
2022-12-26T01:10:36.467Z,8.59
2022-12-26T01:10:58.341Z,8.59
2022-12-26T01:11:30.115Z,8.77
2022-12-26T01:12:02.085Z,8.66
2022-12-26T01:12:34.095Z,8.66
2022-12-26T01:13:06.573Z,8.48
2022-12-26T01:13:38.065Z,8.48
2022-12-26T01:14:10.127Z,8.48
2022-12-26T01:14:35.331Z,8.48
2022-12-26T01:14:58.120Z,8.59
2022-12-26T01:15:30.704Z,8.59
2022-12-26T01:16:03.144Z,8.69
2022-12-26T01:16:34.639Z,8.69
2022-12-26T01:17:06.619Z,8.50
2022-12-26T01:17:36.906Z,8.50
2022-12-26T01:17:54.294Z,8.69
2022-12-26T01:18:26.091Z,8.50
2022-12-26T01:18:43.296Z,8.50
2022-12-26T01:19:14.197Z,8.50
2022-12-26T01:19:36.322Z,8.50
2022-12-26T01:20:03.440Z,8.55
2022-12-26T01:20:34.092Z,8.55
2022-12-26T01:21:06.713Z,8.55
2022-12-26T01:21:35.331Z,8.55
2022-12-26T01:21:54.095Z,8.55
2022-12-26T01:22:26.147Z,8.55
2022-12-26T01:22:43.797Z,8.55
2022-12-26T01:23:14.055Z,8.55
2022-12-26T01:23:36.318Z,8.55
2022-12-26T01:24:02.089Z,8.55
2022-12-26T01:24:34.541Z,8.55
2022-12-26T01:25:06.862Z,8.69
2022-12-26T01:25:38.081Z,8.69
2022-12-26T01:26:17.558Z,8.69
2022-12-26T01:26:35.323Z,8.69
2022-12-26T01:26:58.072Z,8.69
2022-12-26T01:27:30.086Z,8.69
2022-12-26T01:28:02.108Z,8.59
2022-12-26T01:28:34.208Z,8.59
2022-12-26T01:29:07.010Z,8.39
2022-12-26T01:29:35.685Z,8.39
2022-12-26T01:29:54.114Z,8.39
2022-12-26T01:30:26.724Z,8.50
2022-12-26T01:30:43.806Z,8.69
2022-12-26T01:31:14.176Z,8.69
2022-12-26T01:31:36.410Z,8.69
2022-12-26T01:32:02.256Z,8.69
2022-12-26T01:32:34.079Z,8.59
2022-12-26T01:33:06.592Z,8.59
2022-12-26T01:33:38.183Z,8.59
2022-12-26T01:34:10.258Z,8.59
2022-12-26T01:34:36.503Z,8.39
2022-12-26T01:34:58.176Z,8.39
2022-12-26T01:35:31.204Z,8.50
2022-12-26T01:36:02.087Z,8.50
2022-12-26T01:36:34.075Z,8.50
2022-12-26T01:37:06.552Z,8.50
2022-12-26T01:37:35.327Z,8.50
2022-12-26T01:37:54.118Z,8.69
2022-12-26T01:38:26.436Z,8.50
2022-12-26T01:38:44.097Z,8.50
2022-12-26T01:39:14.092Z,8.50
2022-12-26T01:39:36.262Z,8.50
2022-12-26T01:40:03.315Z,8.50
2022-12-26T01:40:34.719Z,8.55
2022-12-26T01:41:06.868Z,8.55
2022-12-26T01:41:35.389Z,8.55
2022-12-26T01:41:58.278Z,8.50
2022-12-26T01:42:26.684Z,8.69
2022-12-26T01:42:43.322Z,8.50
2022-12-26T01:43:14.718Z,8.50
2022-12-26T01:43:36.312Z,8.69
2022-12-26T01:44:02.856Z,8.50
2022-12-26T01:44:34.496Z,8.50
2022-12-26T01:45:07.861Z,8.69
2022-12-26T01:45:35.620Z,8.50
2022-12-26T01:45:54.797Z,8.50
2022-12-26T01:46:26.359Z,8.50
2022-12-26T01:46:44.022Z,8.69
2022-12-26T01:47:14.259Z,8.69
2022-12-26T01:47:36.654Z,8.50
2022-12-26T01:48:02.295Z,8.50
2022-12-26T01:48:34.121Z,8.50
2022-12-26T01:49:06.900Z,8.50
2022-12-26T01:49:38.340Z,8.69
2022-12-26T01:50:10.424Z,8.69
2022-12-26T01:50:36.559Z,8.69
2022-12-26T01:50:58.573Z,8.69
2022-12-26T01:51:31.062Z,8.69
2022-12-26T01:52:02.088Z,8.69
2022-12-26T01:52:34.538Z,8.69
2022-12-26T01:53:06.631Z,8.69
2022-12-26T01:53:35.595Z,8.69
2022-12-26T01:53:54.113Z,8.69
2022-12-26T01:54:41.253Z,8.69
2022-12-26T01:54:43.878Z,8.69
2022-12-26T01:55:14.453Z,8.69
2022-12-26T01:55:36.693Z,8.69
2022-12-26T01:56:02.103Z,8.69
2022-12-26T01:56:34.728Z,8.69
2022-12-26T01:57:06.655Z,8.50
2022-12-26T01:57:35.377Z,8.50
2022-12-26T01:57:55.041Z,8.50
2022-12-26T01:58:26.127Z,8.50
2022-12-26T01:58:43.286Z,8.50
2022-12-26T01:59:14.122Z,8.50
2022-12-26T01:59:36.397Z,8.69
2022-12-26T02:00:04.110Z,8.50
2022-12-26T02:00:34.433Z,8.69
2022-12-26T02:01:07.237Z,8.69
2022-12-26T02:01:35.579Z,8.69
2022-12-26T02:01:54.476Z,8.69
2022-12-26T02:02:26.281Z,8.69
2022-12-26T02:02:43.360Z,8.69
2022-12-26T02:03:14.128Z,8.69
2022-12-26T02:03:36.401Z,8.69
2022-12-26T02:04:02.142Z,8.69
2022-12-26T02:04:34.094Z,8.69
2022-12-26T02:05:07.049Z,8.69
2022-12-26T02:05:35.399Z,8.69
2022-12-26T02:05:54.404Z,8.69
2022-12-26T02:06:26.166Z,8.69
2022-12-26T02:06:43.270Z,8.69
2022-12-26T02:07:14.132Z,8.69
2022-12-26T02:07:36.421Z,8.69
2022-12-26T02:08:02.154Z,8.69
2022-12-26T02:08:34.110Z,8.50
2022-12-26T02:09:06.644Z,8.69
2022-12-26T02:09:35.378Z,8.69
2022-12-26T02:09:54.160Z,8.69
2022-12-26T02:10:26.428Z,8.69
2022-12-26T02:10:44.027Z,8.50
2022-12-26T02:11:14.086Z,8.50
2022-12-26T02:11:36.447Z,8.50
2022-12-26T02:12:33.914Z,8.50
2022-12-26T02:12:38.446Z,8.55
2022-12-26T02:13:06.615Z,8.55
2022-12-26T02:13:35.361Z,8.55
2022-12-26T02:13:54.925Z,8.55
2022-12-26T02:14:26.137Z,8.55
2022-12-26T02:14:43.281Z,8.55
2022-12-26T02:15:14.736Z,8.55
2022-12-26T02:15:36.391Z,8.55
2022-12-26T02:16:03.350Z,8.55
2022-12-26T02:16:34.145Z,8.55
2022-12-26T02:17:07.124Z,8.55
2022-12-26T02:17:38.119Z,8.55
2022-12-26T02:18:10.110Z,8.55
2022-12-26T02:18:35.378Z,8.55
2022-12-26T02:18:58.173Z,8.55
2022-12-26T02:19:30.159Z,8.55
2022-12-26T02:20:03.526Z,8.55
2022-12-26T02:20:34.217Z,8.55
2022-12-26T02:21:06.657Z,8.55
2022-12-26T02:21:35.392Z,8.55
2022-12-26T02:21:54.131Z,8.55
2022-12-26T02:22:26.108Z,8.74
2022-12-26T02:22:43.269Z,8.74
2022-12-26T02:23:14.158Z,8.55
2022-12-26T02:23:36.358Z,8.74
2022-12-26T02:24:02.207Z,8.74
2022-12-26T02:24:34.078Z,8.74
2022-12-26T02:25:06.898Z,8.74
2022-12-26T02:25:35.359Z,8.74
2022-12-26T02:25:54.354Z,8.74
2022-12-26T02:26:26.154Z,8.69
2022-12-26T02:26:43.291Z,8.69
2022-12-26T02:27:14.169Z,8.69
2022-12-26T02:27:36.337Z,8.69
2022-12-26T02:28:02.113Z,8.69
2022-12-26T02:28:34.107Z,8.69
2022-12-26T02:29:06.630Z,8.69
2022-12-26T02:29:35.381Z,8.69
2022-12-26T02:29:54.224Z,8.69
2022-12-26T02:30:26.627Z,8.69
2022-12-26T02:30:43.250Z,8.69
2022-12-26T02:31:14.199Z,8.69
2022-12-26T02:31:36.496Z,8.69
2022-12-26T02:32:02.187Z,8.69
2022-12-26T02:32:35.294Z,8.69
2022-12-26T02:33:06.598Z,8.88
2022-12-26T02:33:35.502Z,8.88
2022-12-26T02:33:54.104Z,8.88
2022-12-26T02:34:26.108Z,8.77
2022-12-26T02:34:43.264Z,8.77
2022-12-26T02:35:14.415Z,8.77
2022-12-26T02:35:37.122Z,8.77
2022-12-26T02:36:02.094Z,8.77
2022-12-26T02:36:34.038Z,8.66
2022-12-26T02:37:06.600Z,8.66
2022-12-26T02:37:38.082Z,8.66
2022-12-26T02:38:10.090Z,8.66
2022-12-26T02:38:35.620Z,8.66
2022-12-26T02:39:44.095Z,8.77
2022-12-26T02:39:45.388Z,8.59
2022-12-26T02:40:03.286Z,8.59
2022-12-26T02:40:34.032Z,8.59
2022-12-26T02:41:06.679Z,8.88
2022-12-26T02:41:35.317Z,8.69
2022-12-26T02:41:54.908Z,8.74
2022-12-26T02:42:26.099Z,8.74
2022-12-26T02:42:43.258Z,8.74
2022-12-26T02:43:14.033Z,8.93
2022-12-26T02:43:35.870Z,8.93
2022-12-26T02:44:02.089Z,8.88
2022-12-26T02:44:34.062Z,8.88
2022-12-26T02:45:07.646Z,8.88
2022-12-26T02:45:38.168Z,8.88
2022-12-26T02:46:10.328Z,8.69
2022-12-26T02:46:35.335Z,8.69
2022-12-26T02:46:58.036Z,8.69
2022-12-26T02:47:30.105Z,8.69
2022-12-26T02:48:02.069Z,8.88
2022-12-26T02:48:34.033Z,8.88
2022-12-26T02:49:06.504Z,8.88
2022-12-26T02:49:35.305Z,8.88
2022-12-26T02:49:54.083Z,8.88
2022-12-26T02:50:26.389Z,8.88
2022-12-26T02:50:43.266Z,8.88
2022-12-26T02:51:14.017Z,8.88
2022-12-26T02:51:35.879Z,8.88
2022-12-26T02:52:02.087Z,8.88
2022-12-26T02:52:34.172Z,8.88
2022-12-26T02:53:06.581Z,8.69
2022-12-26T02:53:38.052Z,8.88
2022-12-26T02:54:10.094Z,8.88
2022-12-26T02:54:37.135Z,8.88
2022-12-26T02:54:58.049Z,8.88
2022-12-26T02:55:30.373Z,8.88
2022-12-26T02:56:02.040Z,8.88
2022-12-26T02:56:37.114Z,8.88
2022-12-26T02:57:06.626Z,8.88
2022-12-26T02:57:35.346Z,8.88
2022-12-26T02:57:54.036Z,8.88
2022-12-26T02:58:26.096Z,8.88
2022-12-26T02:58:43.253Z,8.88
2022-12-26T02:59:14.010Z,8.88
2022-12-26T02:59:56.122Z,8.88
2022-12-26T03:00:03.697Z,8.88
2022-12-26T03:00:34.158Z,8.77
2022-12-26T03:01:07.277Z,8.77
2022-12-26T03:01:35.406Z,8.77
2022-12-26T03:01:54.220Z,8.77
2022-12-26T03:02:26.208Z,8.77
2022-12-26T03:02:43.348Z,8.77
2022-12-26T03:03:14.196Z,8.77
2022-12-26T03:03:35.892Z,8.77
2022-12-26T03:04:02.045Z,8.77
2022-12-26T03:04:34.056Z,8.85
2022-12-26T03:05:06.790Z,8.85
2022-12-26T03:05:35.408Z,8.85
2022-12-26T03:05:54.303Z,8.85
2022-12-26T03:06:26.056Z,8.85
2022-12-26T03:06:43.301Z,8.66
2022-12-26T03:07:14.047Z,8.85
2022-12-26T03:07:35.908Z,8.85
2022-12-26T03:08:02.107Z,8.85
2022-12-26T03:08:34.525Z,8.85
2022-12-26T03:09:06.556Z,8.85
2022-12-26T03:09:35.326Z,8.85
2022-12-26T03:09:54.029Z,8.85
2022-12-26T03:10:26.305Z,8.73
2022-12-26T03:10:43.676Z,8.73
2022-12-26T03:11:14.063Z,8.73
2022-12-26T03:11:35.887Z,8.73
2022-12-26T03:12:02.087Z,8.73
2022-12-26T03:12:34.036Z,8.73
2022-12-26T03:13:06.488Z,8.73
2022-12-26T03:13:35.541Z,8.73
2022-12-26T03:14:00.353Z,8.73
2022-12-26T03:14:26.095Z,8.73
2022-12-26T03:14:43.304Z,8.73
2022-12-26T03:15:14.615Z,8.73
2022-12-26T03:15:35.900Z,8.73
2022-12-26T03:16:03.280Z,8.73
2022-12-26T03:16:34.095Z,8.73
2022-12-26T03:17:07.324Z,8.55
2022-12-26T03:17:35.327Z,8.55
2022-12-26T03:17:54.051Z,8.55
2022-12-26T03:18:56.831Z,8.73
2022-12-26T03:18:57.590Z,8.73
2022-12-26T03:19:14.015Z,8.73
2022-12-26T03:19:35.871Z,8.73
2022-12-26T03:20:03.345Z,8.73
2022-12-26T03:20:34.052Z,8.73
2022-12-26T03:21:06.545Z,8.73
2022-12-26T03:21:38.129Z,8.73
2022-12-26T03:22:10.165Z,8.73
2022-12-26T03:22:35.587Z,8.73
2022-12-26T03:22:58.889Z,8.73
2022-12-26T03:23:30.066Z,8.62
2022-12-26T03:24:02.091Z,8.62
2022-12-26T03:24:39.068Z,8.62
2022-12-26T03:25:06.780Z,8.62
2022-12-26T03:25:35.700Z,8.62
2022-12-26T03:25:54.290Z,8.62
2022-12-26T03:26:26.048Z,8.62
2022-12-26T03:26:43.217Z,8.62
2022-12-26T03:27:14.071Z,8.62
2022-12-26T03:27:35.837Z,8.62
2022-12-26T03:28:02.043Z,8.62
2022-12-26T03:28:34.018Z,8.62
2022-12-26T03:29:06.472Z,8.62
2022-12-26T03:29:35.317Z,8.62
2022-12-26T03:29:54.037Z,8.62
2022-12-26T03:30:26.773Z,8.62
2022-12-26T03:30:43.350Z,8.62
2022-12-26T03:31:14.195Z,8.62
2022-12-26T03:31:35.879Z,8.62
2022-12-26T03:32:02.078Z,8.62
2022-12-26T03:32:34.859Z,8.62
2022-12-26T03:33:06.526Z,8.62
2022-12-26T03:33:37.031Z,8.62
2022-12-26T03:33:54.083Z,8.62
2022-12-26T03:34:26.035Z,8.62
2022-12-26T03:34:43.172Z,8.62
2022-12-26T03:35:14.396Z,8.62
2022-12-26T03:35:37.026Z,8.62
2022-12-26T03:36:02.064Z,8.62
2022-12-26T03:36:34.599Z,8.62
2022-12-26T03:37:06.495Z,8.62
2022-12-26T03:37:48.493Z,8.62
2022-12-26T03:38:10.023Z,8.62
2022-12-26T03:38:35.321Z,8.62
2022-12-26T03:38:58.074Z,8.62
2022-12-26T03:39:30.119Z,8.62
2022-12-26T03:40:03.293Z,8.62
2022-12-26T03:40:34.025Z,8.62
2022-12-26T03:41:06.513Z,8.62
2022-12-26T03:41:35.959Z,8.62
2022-12-26T03:41:54.853Z,8.62
2022-12-26T03:42:26.051Z,8.57
2022-12-26T03:42:43.304Z,8.57
2022-12-26T03:43:14.158Z,8.57
2022-12-26T03:43:35.857Z,8.57
2022-12-26T03:44:02.037Z,8.57
2022-12-26T03:44:34.035Z,8.57
2022-12-26T03:45:07.737Z,8.57
2022-12-26T03:45:37.232Z,8.57
2022-12-26T03:45:54.332Z,8.57
2022-12-26T03:46:26.085Z,8.57
2022-12-26T03:46:43.205Z,8.57
2022-12-26T03:47:14.028Z,8.57
2022-12-26T03:47:35.858Z,8.57
2022-12-26T03:48:02.154Z,8.57
2022-12-26T03:48:34.043Z,8.57
2022-12-26T03:49:06.506Z,8.57
2022-12-26T03:49:35.715Z,8.57
2022-12-26T03:49:54.022Z,8.57
2022-12-26T03:50:26.325Z,8.57
2022-12-26T03:50:43.302Z,8.57
2022-12-26T03:51:14.051Z,8.57
2022-12-26T03:51:35.881Z,8.57
2022-12-26T03:52:02.044Z,8.57
2022-12-26T03:52:34.032Z,8.57
2022-12-26T03:53:06.063Z,8.57
2022-12-26T03:53:35.324Z,8.57
2022-12-26T03:53:54.089Z,8.57
2022-12-26T03:54:26.079Z,8.57
2022-12-26T03:54:43.792Z,8.57
2022-12-26T03:55:14.337Z,8.57
2022-12-26T03:55:35.836Z,8.57
2022-12-26T03:56:02.076Z,8.57
2022-12-26T03:56:34.042Z,8.57
2022-12-26T03:57:06.200Z,8.75
2022-12-26T03:57:35.324Z,8.75
2022-12-26T03:57:54.038Z,8.75
2022-12-26T03:58:26.018Z,8.65
2022-12-26T03:58:43.210Z,8.65
2022-12-26T03:59:14.209Z,8.47
2022-12-26T03:59:35.870Z,8.47
2022-12-26T04:00:03.818Z,8.65
2022-12-26T04:00:34.084Z,8.65
2022-12-26T04:01:07.407Z,8.65
2022-12-26T04:01:35.894Z,8.65
2022-12-26T04:02:07.752Z,8.65
2022-12-26T04:02:26.242Z,8.65
2022-12-26T04:02:43.215Z,8.65
2022-12-26T04:03:14.107Z,8.54
2022-12-26T04:03:35.877Z,8.54
2022-12-26T04:04:02.190Z,8.54
2022-12-26T04:04:34.054Z,8.54
2022-12-26T04:05:06.694Z,8.54
2022-12-26T04:05:35.332Z,8.54
2022-12-26T04:05:54.319Z,8.54
2022-12-26T04:06:26.030Z,8.54
2022-12-26T04:06:43.194Z,8.54
2022-12-26T04:07:14.123Z,8.54
2022-12-26T04:07:35.877Z,8.54
2022-12-26T04:08:02.061Z,8.54
2022-12-26T04:08:34.131Z,8.54
2022-12-26T04:09:06.064Z,8.71
2022-12-26T04:09:35.308Z,8.59
2022-12-26T04:09:54.063Z,8.59
2022-12-26T04:10:26.317Z,8.59
2022-12-26T04:10:43.744Z,8.42
2022-12-26T04:11:14.052Z,8.59
2022-12-26T04:11:35.819Z,8.59
2022-12-26T04:12:02.069Z,8.59
2022-12-26T04:12:34.314Z,8.42
2022-12-26T04:13:06.127Z,8.59
2022-12-26T04:13:38.162Z,8.32
2022-12-26T04:14:10.044Z,8.32
2022-12-26T04:14:35.714Z,8.49
2022-12-26T04:14:58.050Z,8.49
2022-12-26T04:15:30.693Z,8.49
2022-12-26T04:16:03.128Z,8.49
2022-12-26T04:16:34.072Z,8.32
2022-12-26T04:17:07.337Z,8.32
2022-12-26T04:17:35.345Z,8.32
2022-12-26T04:17:54.067Z,8.32
2022-12-26T04:18:26.107Z,8.32
2022-12-26T04:18:43.231Z,8.32
2022-12-26T04:19:14.025Z,8.32
2022-12-26T04:19:41.337Z,8.32
2022-12-26T04:20:03.348Z,8.49
2022-12-26T04:20:34.084Z,8.49
2022-12-26T04:21:06.088Z,8.32
2022-12-26T04:21:35.296Z,8.32
2022-12-26T04:21:54.028Z,8.44
2022-12-26T04:22:26.014Z,8.44
2022-12-26T04:22:43.239Z,8.44
2022-12-26T04:23:14.801Z,8.44
2022-12-26T04:23:35.812Z,8.44
2022-12-26T04:24:02.049Z,8.44
2022-12-26T04:24:34.038Z,8.44
2022-12-26T04:25:06.565Z,8.27
2022-12-26T04:25:48.792Z,8.27
2022-12-26T04:25:54.307Z,8.27
2022-12-26T04:26:26.866Z,8.27
2022-12-26T04:26:43.427Z,8.27
2022-12-26T04:27:14.057Z,8.27
2022-12-26T04:27:35.862Z,8.27
2022-12-26T04:28:02.156Z,8.27
2022-12-26T04:28:34.052Z,8.27
2022-12-26T04:29:06.074Z,8.27
2022-12-26T04:29:41.040Z,8.27
2022-12-26T04:30:11.974Z,8.32
2022-12-26T04:30:35.338Z,8.32
2022-12-26T04:30:58.335Z,8.32
2022-12-26T04:31:30.187Z,8.32
2022-12-26T04:32:02.073Z,8.32
2022-12-26T04:32:34.018Z,8.32
2022-12-26T04:33:06.072Z,8.32
2022-12-26T04:33:38.035Z,8.27
2022-12-26T04:34:10.020Z,8.27
2022-12-26T04:34:35.328Z,8.09
2022-12-26T04:34:58.077Z,8.27
2022-12-26T04:35:30.452Z,8.27
2022-12-26T04:36:02.892Z,8.27
2022-12-26T04:36:34.065Z,8.09
2022-12-26T04:37:06.084Z,8.09
2022-12-26T04:37:35.325Z,8.09
2022-12-26T04:37:54.017Z,8.09
2022-12-26T04:38:26.058Z,8.13
2022-12-26T04:38:43.205Z,8.13
2022-12-26T04:39:14.742Z,8.32
2022-12-26T04:39:36.679Z,8.13
2022-12-26T04:40:03.682Z,8.13
2022-12-26T04:40:34.046Z,8.32
2022-12-26T04:41:06.056Z,8.13
2022-12-26T04:41:38.005Z,8.13
2022-12-26T04:42:10.035Z,8.13
2022-12-26T04:42:35.596Z,8.13
2022-12-26T04:42:58.090Z,8.13
2022-12-26T04:43:50.341Z,8.13
2022-12-26T04:44:02.065Z,8.13
2022-12-26T04:44:34.018Z,8.13
2022-12-26T04:45:06.991Z,8.13
2022-12-26T04:45:38.863Z,8.13
2022-12-26T04:46:10.264Z,8.13
2022-12-26T04:46:35.365Z,8.24
2022-12-26T04:46:58.209Z,8.24
2022-12-26T04:47:30.073Z,8.24
2022-12-26T04:48:02.021Z,8.24
2022-12-26T04:48:34.022Z,8.24
2022-12-26T04:49:06.059Z,8.24
2022-12-26T04:49:38.022Z,8.24
2022-12-26T04:50:11.731Z,8.24
2022-12-26T04:50:35.428Z,8.24
2022-12-26T04:50:58.310Z,8.24
2022-12-26T04:51:30.095Z,8.24
2022-12-26T04:52:02.982Z,8.24
2022-12-26T04:52:34.044Z,8.24
2022-12-26T04:53:06.056Z,8.24
2022-12-26T04:53:35.303Z,8.24
2022-12-26T04:53:54.009Z,8.24
2022-12-26T04:54:26.036Z,8.24
2022-12-26T04:54:43.202Z,8.24
2022-12-26T04:55:15.121Z,8.24
2022-12-26T04:55:35.845Z,8.24
2022-12-26T04:56:02.026Z,8.24
2022-12-26T04:56:34.312Z,8.06
2022-12-26T04:57:06.047Z,8.24
2022-12-26T04:57:35.312Z,8.24
2022-12-26T04:57:54.072Z,8.36
2022-12-26T04:58:26.764Z,8.36
2022-12-26T04:58:43.312Z,8.36
2022-12-26T04:59:14.001Z,8.36
2022-12-26T04:59:35.802Z,8.36
2022-12-26T05:00:03.974Z,8.36
2022-12-26T05:00:34.079Z,8.36
2022-12-26T05:01:06.115Z,8.36
2022-12-26T05:01:39.153Z,8.36
2022-12-26T05:02:09.609Z,8.36
2022-12-26T05:02:35.093Z,8.36
2022-12-26T05:02:57.679Z,8.36
2022-12-26T05:03:29.766Z,8.24
2022-12-26T05:04:01.607Z,8.24
2022-12-26T05:04:33.492Z,8.24
2022-12-26T05:05:05.994Z,8.42
2022-12-26T05:05:34.836Z,8.42
2022-12-26T05:05:53.746Z,8.42
2022-12-26T05:06:26.133Z,8.42
2022-12-26T05:06:44.558Z,8.42
2022-12-26T05:07:14.056Z,8.32
2022-12-26T05:07:35.866Z,8.32
2022-12-26T05:08:02.875Z,8.13
2022-12-26T05:08:34.075Z,8.13
2022-12-26T05:09:06.146Z,8.42
2022-12-26T05:09:38.049Z,8.24
2022-12-26T05:10:10.300Z,8.24
2022-12-26T05:10:35.317Z,8.24
2022-12-26T05:10:58.266Z,8.24
2022-12-26T05:11:30.050Z,8.24
2022-12-26T05:12:02.043Z,8.24
2022-12-26T05:12:34.375Z,8.24
2022-12-26T05:13:06.115Z,8.24
2022-12-26T05:13:35.336Z,8.24
2022-12-26T05:13:54.052Z,8.24
2022-12-26T05:14:26.780Z,8.24
2022-12-26T05:14:53.241Z,8.24
2022-12-26T05:15:14.580Z,8.24
2022-12-26T05:15:36.010Z,8.24
2022-12-26T05:16:03.758Z,8.36
2022-12-26T05:16:34.103Z,8.36
2022-12-26T05:17:06.120Z,8.36
2022-12-26T05:17:36.402Z,8.54
2022-12-26T05:17:54.024Z,8.42
2022-12-26T05:18:26.084Z,8.42
2022-12-26T05:18:43.153Z,8.42
2022-12-26T05:19:14.090Z,8.42
2022-12-26T05:19:35.994Z,8.42
2022-12-26T05:20:04.070Z,8.42
2022-12-26T05:20:34.511Z,8.42
2022-12-26T05:21:06.110Z,8.42
2022-12-26T05:21:35.635Z,8.42
2022-12-26T05:21:54.039Z,8.42
2022-12-26T05:22:26.103Z,8.42
2022-12-26T05:22:43.178Z,8.42
2022-12-26T05:23:14.037Z,8.42
2022-12-26T05:23:35.841Z,8.42
2022-12-26T05:24:04.124Z,8.42
2022-12-26T05:24:34.647Z,8.42
2022-12-26T05:25:06.367Z,8.36
2022-12-26T05:25:35.319Z,8.36
2022-12-26T05:25:54.269Z,8.36
2022-12-26T05:26:26.081Z,8.36
2022-12-26T05:26:43.156Z,8.36
2022-12-26T05:27:15.014Z,8.47
2022-12-26T05:27:35.868Z,8.47
2022-12-26T05:28:02.014Z,8.47
2022-12-26T05:28:34.095Z,8.57
2022-12-26T05:29:06.092Z,8.57
2022-12-26T05:29:35.322Z,8.57
2022-12-26T05:29:54.037Z,8.57
2022-12-26T05:30:27.419Z,8.57
2022-12-26T05:30:43.359Z,8.57
2022-12-26T05:31:14.205Z,8.57
2022-12-26T05:31:37.065Z,8.57
2022-12-26T05:32:02.056Z,8.57
2022-12-26T05:32:34.522Z,8.57
2022-12-26T05:33:06.097Z,8.57
2022-12-26T05:33:38.833Z,8.57
2022-12-26T05:34:10.048Z,8.57
2022-12-26T05:34:35.277Z,8.57
2022-12-26T05:34:57.998Z,8.57
2022-12-26T05:35:30.310Z,8.57
2022-12-26T05:36:02.032Z,8.57
2022-12-26T05:36:34.101Z,8.57
2022-12-26T05:37:06.066Z,8.57
2022-12-26T05:37:35.316Z,8.57
2022-12-26T05:37:54.007Z,8.75
2022-12-26T05:38:26.100Z,8.75
2022-12-26T05:38:43.182Z,8.57
2022-12-26T05:39:14.022Z,8.57
2022-12-26T05:39:35.837Z,8.75
2022-12-26T05:40:03.728Z,8.57
2022-12-26T05:40:34.238Z,8.57
2022-12-26T05:41:06.089Z,8.57
2022-12-26T05:41:35.307Z,8.57
2022-12-26T05:41:54.020Z,8.75
2022-12-26T05:42:26.067Z,8.75
2022-12-26T05:42:43.123Z,8.57
2022-12-26T05:43:15.147Z,8.75
2022-12-26T05:43:35.869Z,8.75
2022-12-26T05:44:02.034Z,8.75
2022-12-26T05:44:34.182Z,8.75
2022-12-26T05:45:06.621Z,8.65
2022-12-26T05:45:35.304Z,8.65
2022-12-26T05:45:54.308Z,8.65
2022-12-26T05:46:26.944Z,8.65
2022-12-26T05:46:58.095Z,8.65
2022-12-26T05:47:30.079Z,8.65
2022-12-26T05:48:02.030Z,8.65
2022-12-26T05:48:34.112Z,8.65
2022-12-26T05:49:06.128Z,8.65
2022-12-26T05:49:36.161Z,8.65
2022-12-26T05:49:54.005Z,8.47
2022-12-26T05:50:26.334Z,8.65
2022-12-26T05:50:43.289Z,8.65
2022-12-26T05:51:14.087Z,8.65
2022-12-26T05:51:35.901Z,8.57
2022-12-26T05:52:02.049Z,8.57
2022-12-26T05:52:34.157Z,8.57
2022-12-26T05:53:06.055Z,8.57
2022-12-26T05:53:35.326Z,8.57
2022-12-26T05:53:54.036Z,8.57
2022-12-26T05:54:26.111Z,8.75
2022-12-26T05:54:43.164Z,8.75
2022-12-26T05:55:14.284Z,8.75
2022-12-26T05:55:35.850Z,8.75
2022-12-26T05:56:03.014Z,8.57
2022-12-26T05:56:34.161Z,8.57
2022-12-26T05:57:06.065Z,8.57
2022-12-26T05:57:38.027Z,8.62
2022-12-26T05:58:10.061Z,8.62
2022-12-26T05:58:35.297Z,8.62
2022-12-26T05:58:58.011Z,8.62
2022-12-26T05:59:30.005Z,8.62
2022-12-26T06:00:04.434Z,8.62
2022-12-26T06:00:34.230Z,8.62
2022-12-26T06:01:06.126Z,8.62
2022-12-26T06:01:38.166Z,8.62
2022-12-26T06:02:10.176Z,8.80
2022-12-26T06:02:35.478Z,8.80
2022-12-26T06:02:58.217Z,8.57
2022-12-26T06:03:30.136Z,8.62
2022-12-26T06:04:02.148Z,8.62
2022-12-26T06:04:34.202Z,8.62
2022-12-26T06:05:06.341Z,8.62
2022-12-26T06:05:37.198Z,8.62
2022-12-26T06:05:54.347Z,8.80
2022-12-26T06:06:26.080Z,8.62
2022-12-26T06:06:43.141Z,8.62
2022-12-26T06:07:14.048Z,8.62
2022-12-26T06:07:35.827Z,8.62